»·PEaware :: N85NA KSNA-KBUR

N85NA :: KSNA-KBUR

FLIGHT INFORMATION

Flight Status: Arrived
Operator: Privately registered:
United States
More flights under this callsign
Pilot: Thomas M. (23073)
Aircraft: PIPER PA-28R-201 ARROW
(P28R)
More flights by this aircraft type
Origin: KSNA John Wayne-Orange Co
United States
Destination: KBUR Bob Hope-Burbank
United States
More flights between these airports :: More routes between these airports
Route: +SLI V23 POPPR SMO125R SMO SMO311R SILEX
File this flight plan on PilotEdge
Remarks: I-3 rating
Altitude:
(Current/Filed)
4,000ft
Speed:
(Current/Filed)
125kts
Departed: 10-Feb-19 01:33 PM
Arrived: 10-Feb-19 02:11 PM
Distance/Time
Traveled:
40nm/0:37
Distance/Time
To Go:
Arrived

Flight Plot

Page will automatically refresh every two minutes.


Map Options




Map Legend


Flown Route
Filed Route
Departure Airport
Arrival Airport
Navaid (VOR, NDB)
Fix

Horizontal Profiles

Position Reports

Time Latitude Longitude Heading Altitude Ground
Speed
10-Feb-19 13:16 33.673436 -117.865983 118 59ft 0kts
10-Feb-19 13:18 33.673436 -117.865983 118 59ft 0kts
10-Feb-19 13:19 33.673436 -117.865983 118 59ft 0kts
10-Feb-19 13:19 33.673436 -117.865983 118 59ft 0kts
10-Feb-19 13:20 33.673436 -117.865983 118 59ft 0kts
10-Feb-19 13:21 33.673436 -117.865983 118 59ft 0kts
10-Feb-19 13:22 33.673424 -117.865889 78 59ft 5kts
10-Feb-19 13:23 33.675407 -117.866275 27 59ft 17kts
10-Feb-19 13:24 33.679784 -117.863507 357 59ft 19kts
10-Feb-19 13:25 33.679974 -117.863652 296 59ft 0kts
10-Feb-19 13:26 33.679974 -117.863652 296 59ft 0kts
10-Feb-19 13:27 33.679974 -117.863652 296 59ft 0kts
10-Feb-19 13:28 33.679974 -117.863652 296 59ft 0kts
10-Feb-19 13:29 33.679974 -117.863652 296 59ft 0kts
10-Feb-19 13:30 33.679974 -117.863652 296 59ft 0kts
10-Feb-19 13:31 33.679343 -117.864666 205 59ft 39kts
10-Feb-19 13:32 33.666870 -117.881681 241 760ft 82kts
10-Feb-19 13:33 33.653006 -117.904027 233 1666ft 93kts
10-Feb-19 13:34 33.648905 -117.935651 299 2438ft 111kts
10-Feb-19 13:35 33.665562 -117.967276 303 3180ft 115kts
10-Feb-19 13:36 33.682734 -117.999232 303 3893ft 117kts
10-Feb-19 13:37 33.702244 -118.035547 303 4024ft 137kts
10-Feb-19 13:38 33.722845 -118.074020 303 4024ft 137kts
10-Feb-19 13:39 33.742855 -118.111386 303 4024ft 136kts
10-Feb-19 13:40 33.762400 -118.147880 303 4024ft 135kts
10-Feb-19 13:41 33.782309 -118.184569 304 4024ft 135kts
10-Feb-19 13:42 33.802309 -118.220504 304 4024ft 135kts
10-Feb-19 13:43 33.822738 -118.257200 304 3905ft 137kts
10-Feb-19 13:44 33.844082 -118.292221 315 3905ft 135kts
10-Feb-19 13:45 33.871100 -118.320263 320 3905ft 135kts
10-Feb-19 13:46 33.896530 -118.346096 320 3905ft 135kts
10-Feb-19 13:47 33.921167 -118.371127 320 3905ft 135kts
10-Feb-19 13:48 33.944129 -118.394420 320 3905ft 135kts
10-Feb-19 13:49 33.970235 -118.420880 320 3905ft 135kts
10-Feb-19 13:50 33.997188 -118.448197 320 3905ft 135kts
10-Feb-19 13:51 34.027672 -118.475059 326 3905ft 135kts
10-Feb-19 13:52 34.061424 -118.502554 326 3905ft 135kts
10-Feb-19 13:53 34.097062 -118.531584 326 3905ft 135kts
10-Feb-19 13:54 34.130130 -118.558519 326 3905ft 135kts
10-Feb-19 13:55 34.160823 -118.583518 326 3905ft 135kts
10-Feb-19 13:56 34.178989 -118.617835 268 3905ft 135kts
10-Feb-19 13:57 34.174751 -118.662965 262 3905ft 135kts
10-Feb-19 13:58 34.178042 -118.705645 331 3901ft 135kts
10-Feb-19 13:59 34.200685 -118.678993 82 3905ft 137kts
10-Feb-19 14:00 34.201326 -118.635850 93 3905ft 138kts
10-Feb-19 14:01 34.200340 -118.594419 91 3905ft 138kts
10-Feb-19 14:02 34.199141 -118.556569 93 3555ft 105kts
10-Feb-19 14:03 34.197112 -118.528055 89 3152ft 99kts
10-Feb-19 14:04 34.198369 -118.499970 83 2753ft 101kts
10-Feb-19 14:05 34.198824 -118.471886 92 2283ft 92kts
10-Feb-19 14:06 34.197532 -118.446543 92 1927ft 86kts
10-Feb-19 14:07 34.197865 -118.421201 91 1529ft 85kts
10-Feb-19 14:08 34.197539 -118.395864 94 1149ft 85kts
10-Feb-19 14:09 34.197932 -118.373513 92 843ft 68kts
10-Feb-19 14:10 34.198410 -118.360384 352 716ft 3kts
10-Feb-19 14:11 34.198413 -118.360385 353 716ft 0kts
10-Feb-19 14:12 34.198413 -118.360385 353 716ft 0kts
10-Feb-19 14:13 34.198916 -118.361545 271 720ft 16kts
10-Feb-19 14:14 34.200005 -118.363354 1 724ft 0kts

Navigation Log

Ident Type
Flight plan parsing failed, navigation log unavailable